sensor_id;sensor_type;location;lat;lon;timestamp;P1;durP1;ratioP1;P2;durP2;ratioP2
77206;SDS011;66190;50.708;7.906;2023-04-24T00:01:14;6.07;;;1.10;;
77206;SDS011;66190;50.708;7.906;2023-04-24T00:03:42;3.65;;;0.68;;
77206;SDS011;66190;50.708;7.906;2023-04-24T00:06:07;3.47;;;0.70;;
77206;SDS011;66190;50.708;7.906;2023-04-24T00:08:33;3.03;;;0.67;;
77206;SDS011;66190;50.708;7.906;2023-04-24T00:11:00;4.13;;;0.77;;
77206;SDS011;66190;50.708;7.906;2023-04-24T00:13:26;3.40;;;0.83;;
77206;SDS011;66190;50.708;7.906;2023-04-24T00:15:53;2.70;;;0.70;;
77206;SDS011;66190;50.708;7.906;2023-04-24T00:18:19;3.60;;;0.77;;
77206;SDS011;66190;50.708;7.906;2023-04-24T00:20:44;3.25;;;0.73;;
77206;SDS011;66190;50.708;7.906;2023-04-24T00:23:09;4.38;;;0.93;;
77206;SDS011;66190;50.708;7.906;2023-04-24T00:25:35;4.50;;;0.83;;
77206;SDS011;66190;50.708;7.906;2023-04-24T00:28:00;5.17;;;1.03;;
77206;SDS011;66190;50.708;7.906;2023-04-24T00:30:26;4.50;;;1.00;;
77206;SDS011;66190;50.708;7.906;2023-04-24T00:32:51;2.63;;;0.60;;
77206;SDS011;66190;50.708;7.906;2023-04-24T00:35:16;5.85;;;0.90;;
77206;SDS011;66190;50.708;7.906;2023-04-24T00:37:42;3.60;;;0.80;;
77206;SDS011;66190;50.708;7.906;2023-04-24T00:40:07;3.80;;;0.90;;
77206;SDS011;66190;50.708;7.906;2023-04-24T00:42:33;3.47;;;0.70;;
77206;SDS011;66190;50.708;7.906;2023-04-24T00:44:59;4.30;;;1.00;;
77206;SDS011;66190;50.708;7.906;2023-04-24T00:47:25;4.90;;;0.93;;
77206;SDS011;66190;50.708;7.906;2023-04-24T00:49:51;4.72;;;0.90;;
77206;SDS011;66190;50.708;7.906;2023-04-24T00:52:17;3.53;;;0.80;;
77206;SDS011;66190;50.708;7.906;2023-04-24T00:54:46;4.90;;;0.90;;
77206;SDS011;66190;50.708;7.906;2023-04-24T00:57:12;3.75;;;0.90;;
77206;SDS011;66190;50.708;7.906;2023-04-24T00:59:40;3.78;;;0.68;;
77206;SDS011;66190;50.708;7.906;2023-04-24T01:02:06;4.78;;;0.90;;
77206;SDS011;66190;50.708;7.906;2023-04-24T01:04:33;3.35;;;0.68;;
77206;SDS011;66190;50.708;7.906;2023-04-24T01:06:59;2.75;;;0.60;;
77206;SDS011;66190;50.708;7.906;2023-04-24T01:09:25;3.47;;;0.85;;
77206;SDS011;66190;50.708;7.906;2023-04-24T01:11:51;3.03;;;0.70;;
77206;SDS011;66190;50.708;7.906;2023-04-24T01:14:17;2.90;;;0.80;;
77206;SDS011;66190;50.708;7.906;2023-04-24T01:16:43;2.83;;;0.70;;
77206;SDS011;66190;50.708;7.906;2023-04-24T01:19:08;3.17;;;0.73;;
77206;SDS011;66190;50.708;7.906;2023-04-24T01:21:36;2.92;;;0.70;;
77206;SDS011;66190;50.708;7.906;2023-04-24T01:24:05;3.40;;;0.63;;
77206;SDS011;66190;50.708;7.906;2023-04-24T01:26:31;2.55;;;0.52;;
77206;SDS011;66190;50.708;7.906;2023-04-24T01:28:57;3.33;;;0.60;;
77206;SDS011;66190;50.708;7.906;2023-04-24T01:31:23;3.00;;;0.50;;
77206;SDS011;66190;50.708;7.906;2023-04-24T01:33:49;3.95;;;0.68;;
77206;SDS011;66190;50.708;7.906;2023-04-24T01:36:14;3.27;;;0.60;;
77206;SDS011;66190;50.708;7.906;2023-04-24T01:38:41;2.88;;;0.50;;
77206;SDS011;66190;50.708;7.906;2023-04-24T01:41:06;2.40;;;0.50;;
77206;SDS011;66190;50.708;7.906;2023-04-24T01:43:32;2.58;;;0.52;;
77206;SDS011;66190;50.708;7.906;2023-04-24T01:45:57;3.13;;;0.70;;
77206;SDS011;66190;50.708;7.906;2023-04-24T01:48:23;2.07;;;0.40;;
77206;SDS011;66190;50.708;7.906;2023-04-24T01:50:48;3.50;;;0.88;;
77206;SDS011;66190;50.708;7.906;2023-04-24T01:53:14;3.03;;;0.60;;
77206;SDS011;66190;50.708;7.906;2023-04-24T01:55:40;2.07;;;0.50;;
77206;SDS011;66190;50.708;7.906;2023-04-24T01:58:06;2.70;;;0.60;;
77206;SDS011;66190;50.708;7.906;2023-04-24T02:00:31;2.83;;;0.63;;
77206;SDS011;66190;50.708;7.906;2023-04-24T02:02:57;3.10;;;0.70;;
77206;SDS011;66190;50.708;7.906;2023-04-24T02:05:23;3.00;;;0.70;;
77206;SDS011;66190;50.708;7.906;2023-04-24T02:07:48;3.65;;;0.70;;
77206;SDS011;66190;50.708;7.906;2023-04-24T02:10:13;3.20;;;0.75;;
77206;SDS011;66190;50.708;7.906;2023-04-24T02:12:39;3.00;;;0.70;;
77206;SDS011;66190;50.708;7.906;2023-04-24T02:15:04;4.40;;;0.80;;
77206;SDS011;66190;50.708;7.906;2023-04-24T02:17:31;3.90;;;0.70;;
77206;SDS011;66190;50.708;7.906;2023-04-24T02:19:56;2.93;;;0.70;;
77206;SDS011;66190;50.708;7.906;2023-04-24T02:22:22;3.30;;;0.70;;
77206;SDS011;66190;50.708;7.906;2023-04-24T02:24:47;3.80;;;0.80;;
77206;SDS011;66190;50.708;7.906;2023-04-24T02:27:13;3.30;;;0.82;;
77206;SDS011;66190;50.708;7.906;2023-04-24T02:29:38;3.77;;;0.77;;
77206;SDS011;66190;50.708;7.906;2023-04-24T02:32:03;3.97;;;0.90;;
77206;SDS011;66190;50.708;7.906;2023-04-24T02:34:29;2.90;;;0.63;;
77206;SDS011;66190;50.708;7.906;2023-04-24T02:36:54;4.03;;;0.90;;
77206;SDS011;66190;50.708;7.906;2023-04-24T02:39:20;3.72;;;1.00;;
77206;SDS011;66190;50.708;7.906;2023-04-24T02:41:45;4.20;;;0.83;;
77206;SDS011;66190;50.708;7.906;2023-04-24T02:44:11;3.80;;;0.90;;
77206;SDS011;66190;50.708;7.906;2023-04-24T02:46:37;4.03;;;0.83;;
77206;SDS011;66190;50.708;7.906;2023-04-24T02:49:02;3.63;;;0.80;;
77206;SDS011;66190;50.708;7.906;2023-04-24T02:51:28;3.88;;;0.88;;
77206;SDS011;66190;50.708;7.906;2023-04-24T02:53:53;4.13;;;0.88;;
77206;SDS011;66190;50.708;7.906;2023-04-24T02:56:19;3.50;;;0.80;;
77206;SDS011;66190;50.708;7.906;2023-04-24T02:58:44;5.03;;;1.43;;
77206;SDS011;66190;50.708;7.906;2023-04-24T03:01:10;3.83;;;1.13;;
77206;SDS011;66190;50.708;7.906;2023-04-24T03:03:36;4.60;;;1.23;;
77206;SDS011;66190;50.708;7.906;2023-04-24T03:06:02;3.88;;;1.15;;
77206;SDS011;66190;50.708;7.906;2023-04-24T03:08:27;4.13;;;1.05;;
77206;SDS011;66190;50.708;7.906;2023-04-24T03:10:53;5.20;;;1.30;;
77206;SDS011;66190;50.708;7.906;2023-04-24T03:13:18;5.67;;;1.10;;
77206;SDS011;66190;50.708;7.906;2023-04-24T03:15:44;4.20;;;1.03;;
77206;SDS011;66190;50.708;7.906;2023-04-24T03:18:10;4.25;;;1.05;;
77206;SDS011;66190;50.708;7.906;2023-04-24T03:20:35;4.43;;;1.30;;
77206;SDS011;66190;50.708;7.906;2023-04-24T03:23:02;4.22;;;0.98;;
77206;SDS011;66190;50.708;7.906;2023-04-24T03:25:28;3.60;;;0.77;;
77206;SDS011;66190;50.708;7.906;2023-04-24T03:27:53;4.90;;;1.30;;
77206;SDS011;66190;50.708;7.906;2023-04-24T03:30:19;5.13;;;1.27;;
77206;SDS011;66190;50.708;7.906;2023-04-24T03:32:45;6.65;;;1.48;;
77206;SDS011;66190;50.708;7.906;2023-04-24T03:35:10;5.33;;;1.30;;
77206;SDS011;66190;50.708;7.906;2023-04-24T03:37:36;4.93;;;1.00;;
77206;SDS011;66190;50.708;7.906;2023-04-24T03:40:01;5.90;;;1.70;;
77206;SDS011;66190;50.708;7.906;2023-04-24T03:42:27;5.00;;;1.60;;
77206;SDS011;66190;50.708;7.906;2023-04-24T03:44:53;5.63;;;1.70;;
77206;SDS011;66190;50.708;7.906;2023-04-24T03:47:18;6.40;;;1.98;;
77206;SDS011;66190;50.708;7.906;2023-04-24T03:49:44;4.57;;;1.57;;
77206;SDS011;66190;50.708;7.906;2023-04-24T03:52:09;5.60;;;1.93;;
77206;SDS011;66190;50.708;7.906;2023-04-24T03:54:35;5.93;;;2.05;;
77206;SDS011;66190;50.708;7.906;2023-04-24T03:57:00;6.30;;;2.17;;
77206;SDS011;66190;50.708;7.906;2023-04-24T03:59:28;5.95;;;2.10;;
77206;SDS011;66190;50.708;7.906;2023-04-24T04:01:53;5.87;;;1.83;;
77206;SDS011;66190;50.708;7.906;2023-04-24T04:04:19;7.33;;;1.93;;
77206;SDS011;66190;50.708;7.906;2023-04-24T04:06:44;6.33;;;1.60;;
77206;SDS011;66190;50.708;7.906;2023-04-24T04:09:11;7.05;;;1.77;;
77206;SDS011;66190;50.708;7.906;2023-04-24T04:11:37;6.05;;;2.03;;
77206;SDS011;66190;50.708;7.906;2023-04-24T04:14:02;7.43;;;2.00;;
77206;SDS011;66190;50.708;7.906;2023-04-24T04:16:28;7.90;;;2.80;;
77206;SDS011;66190;50.708;7.906;2023-04-24T04:18:53;6.13;;;2.23;;
77206;SDS011;66190;50.708;7.906;2023-04-24T04:21:19;8.15;;;2.95;;
77206;SDS011;66190;50.708;7.906;2023-04-24T04:23:44;7.17;;;2.40;;
77206;SDS011;66190;50.708;7.906;2023-04-24T04:26:10;8.20;;;3.20;;
77206;SDS011;66190;50.708;7.906;2023-04-24T04:28:37;7.97;;;2.85;;
77206;SDS011;66190;50.708;7.906;2023-04-24T04:31:04;7.50;;;2.30;;
77206;SDS011;66190;50.708;7.906;2023-04-24T04:33:30;7.20;;;2.90;;
77206;SDS011;66190;50.708;7.906;2023-04-24T04:35:56;7.03;;;2.80;;
77206;SDS011;66190;50.708;7.906;2023-04-24T04:38:21;9.05;;;3.42;;
77206;SDS011;66190;50.708;7.906;2023-04-24T04:40:47;6.33;;;2.40;;
77206;SDS011;66190;50.708;7.906;2023-04-24T04:43:12;7.00;;;2.83;;
77206;SDS011;66190;50.708;7.906;2023-04-24T04:45:39;9.27;;;3.10;;
77206;SDS011;66190;50.708;7.906;2023-04-24T04:48:07;7.05;;;3.53;;
77206;SDS011;66190;50.708;7.906;2023-04-24T04:50:34;9.50;;;3.35;;
77206;SDS011;66190;50.708;7.906;2023-04-24T04:52:59;8.37;;;3.13;;
77206;SDS011;66190;50.708;7.906;2023-04-24T04:55:25;9.20;;;3.17;;
77206;SDS011;66190;50.708;7.906;2023-04-24T04:57:51;9.13;;;3.13;;
77206;SDS011;66190;50.708;7.906;2023-04-24T05:00:17;8.20;;;2.85;;
77206;SDS011;66190;50.708;7.906;2023-04-24T05:02:42;9.83;;;3.67;;
77206;SDS011;66190;50.708;7.906;2023-04-24T05:05:08;7.57;;;3.07;;
77206;SDS011;66190;50.708;7.906;2023-04-24T05:07:34;7.72;;;3.15;;
77206;SDS011;66190;50.708;7.906;2023-04-24T05:09:59;8.63;;;3.50;;
77206;SDS011;66190;50.708;7.906;2023-04-24T05:12:25;8.05;;;3.22;;
77206;SDS011;66190;50.708;7.906;2023-04-24T05:14:50;10.03;;;4.43;;
77206;SDS011;66190;50.708;7.906;2023-04-24T05:17:16;10.20;;;3.80;;
77206;SDS011;66190;50.708;7.906;2023-04-24T05:19:41;9.50;;;2.83;;
77206;SDS011;66190;50.708;7.906;2023-04-24T05:22:07;9.02;;;3.40;;
77206;SDS011;66190;50.708;7.906;2023-04-24T05:24:33;9.23;;;3.40;;
77206;SDS011;66190;50.708;7.906;2023-04-24T05:26:59;8.55;;;3.22;;
77206;SDS011;66190;50.708;7.906;2023-04-24T05:29:24;7.50;;;2.80;;
77206;SDS011;66190;50.708;7.906;2023-04-24T05:31:51;8.52;;;3.45;;
77206;SDS011;66190;50.708;7.906;2023-04-24T05:34:17;8.52;;;3.47;;
77206;SDS011;66190;50.708;7.906;2023-04-24T05:36:42;7.83;;;2.80;;
77206;SDS011;66190;50.708;7.906;2023-04-24T05:39:08;8.10;;;3.07;;
77206;SDS011;66190;50.708;7.906;2023-04-24T05:41:34;7.50;;;3.03;;
77206;SDS011;66190;50.708;7.906;2023-04-24T05:43:59;9.13;;;3.28;;
77206;SDS011;66190;50.708;7.906;2023-04-24T05:46:25;8.77;;;3.27;;
77206;SDS011;66190;50.708;7.906;2023-04-24T05:48:50;8.23;;;2.80;;
77206;SDS011;66190;50.708;7.906;2023-04-24T05:51:15;9.70;;;3.58;;
77206;SDS011;66190;50.708;7.906;2023-04-24T05:53:41;9.57;;;3.70;;
77206;SDS011;66190;50.708;7.906;2023-04-24T05:56:06;8.93;;;3.30;;
77206;SDS011;66190;50.708;7.906;2023-04-24T05:58:31;8.33;;;2.97;;
77206;SDS011;66190;50.708;7.906;2023-04-24T06:00:57;6.57;;;2.43;;
77206;SDS011;66190;50.708;7.906;2023-04-24T06:03:23;5.95;;;1.95;;
77206;SDS011;66190;50.708;7.906;2023-04-24T06:05:50;9.82;;;3.50;;
77206;SDS011;66190;50.708;7.906;2023-04-24T06:08:16;9.13;;;3.50;;
77206;SDS011;66190;50.708;7.906;2023-04-24T06:10:41;7.07;;;2.60;;
77206;SDS011;66190;50.708;7.906;2023-04-24T06:13:07;7.70;;;3.53;;
77206;SDS011;66190;50.708;7.906;2023-04-24T06:15:32;11.13;;;3.97;;
77206;SDS011;66190;50.708;7.906;2023-04-24T06:17:58;10.43;;;4.07;;
77206;SDS011;66190;50.708;7.906;2023-04-24T06:20:23;8.90;;;3.40;;
77206;SDS011;66190;50.708;7.906;2023-04-24T06:22:49;9.18;;;3.88;;
77206;SDS011;66190;50.708;7.906;2023-04-24T06:25:15;9.53;;;3.50;;
77206;SDS011;66190;50.708;7.906;2023-04-24T06:27:40;10.53;;;4.07;;
77206;SDS011;66190;50.708;7.906;2023-04-24T06:30:06;10.63;;;3.90;;
77206;SDS011;66190;50.708;7.906;2023-04-24T06:32:32;7.95;;;3.67;;
77206;SDS011;66190;50.708;7.906;2023-04-24T06:34:57;10.17;;;4.17;;
77206;SDS011;66190;50.708;7.906;2023-04-24T06:37:23;7.93;;;2.67;;
77206;SDS011;66190;50.708;7.906;2023-04-24T06:39:48;8.30;;;3.30;;
77206;SDS011;66190;50.708;7.906;2023-04-24T06:42:14;9.68;;;4.00;;
77206;SDS011;66190;50.708;7.906;2023-04-24T06:44:40;10.03;;;3.83;;
77206;SDS011;66190;50.708;7.906;2023-04-24T06:47:06;8.98;;;3.45;;
77206;SDS011;66190;50.708;7.906;2023-04-24T06:49:34;12.43;;;4.45;;
77206;SDS011;66190;50.708;7.906;2023-04-24T06:52:00;9.95;;;3.65;;
77206;SDS011;66190;50.708;7.906;2023-04-24T06:54:25;12.33;;;4.07;;
77206;SDS011;66190;50.708;7.906;2023-04-24T06:56:50;10.50;;;4.07;;
77206;SDS011;66190;50.708;7.906;2023-04-24T06:59:17;9.52;;;3.85;;
77206;SDS011;66190;50.708;7.906;2023-04-24T07:01:42;10.70;;;4.40;;
77206;SDS011;66190;50.708;7.906;2023-04-24T07:04:07;10.05;;;3.97;;
77206;SDS011;66190;50.708;7.906;2023-04-24T07:06:33;7.73;;;3.47;;
77206;SDS011;66190;50.708;7.906;2023-04-24T07:09:00;10.00;;;3.55;;
77206;SDS011;66190;50.708;7.906;2023-04-24T07:11:26;10.77;;;4.35;;
77206;SDS011;66190;50.708;7.906;2023-04-24T07:13:54;12.43;;;4.63;;
77206;SDS011;66190;50.708;7.906;2023-04-24T07:16:20;9.98;;;4.35;;
77206;SDS011;66190;50.708;7.906;2023-04-24T07:18:45;12.30;;;4.50;;
77206;SDS011;66190;50.708;7.906;2023-04-24T07:21:11;10.33;;;4.77;;
77206;SDS011;66190;50.708;7.906;2023-04-24T07:23:36;13.45;;;4.57;;
77206;SDS011;66190;50.708;7.906;2023-04-24T07:26:02;10.23;;;4.75;;
77206;SDS011;66190;50.708;7.906;2023-04-24T07:28:27;9.50;;;4.10;;
77206;SDS011;66190;50.708;7.906;2023-04-24T07:30:56;7.60;;;3.00;;
77206;SDS011;66190;50.708;7.906;2023-04-24T07:33:22;9.20;;;4.13;;
77206;SDS011;66190;50.708;7.906;2023-04-24T07:35:47;9.80;;;4.00;;
77206;SDS011;66190;50.708;7.906;2023-04-24T07:38:13;8.63;;;4.00;;
77206;SDS011;66190;50.708;7.906;2023-04-24T07:40:38;11.37;;;4.33;;
77206;SDS011;66190;50.708;7.906;2023-04-24T07:43:04;11.43;;;4.97;;
77206;SDS011;66190;50.708;7.906;2023-04-24T07:45:29;10.80;;;4.37;;
77206;SDS011;66190;50.708;7.906;2023-04-24T07:47:56;7.80;;;3.42;;
77206;SDS011;66190;50.708;7.906;2023-04-24T07:50:22;8.77;;;3.72;;
77206;SDS011;66190;50.708;7.906;2023-04-24T07:52:47;8.07;;;3.40;;
77206;SDS011;66190;50.708;7.906;2023-04-24T07:55:13;9.17;;;3.63;;
77206;SDS011;66190;50.708;7.906;2023-04-24T07:57:38;8.00;;;3.35;;
77206;SDS011;66190;50.708;7.906;2023-04-24T08:00:04;8.57;;;3.70;;
77206;SDS011;66190;50.708;7.906;2023-04-24T08:02:30;6.82;;;2.47;;
77206;SDS011;66190;50.708;7.906;2023-04-24T08:04:56;7.77;;;2.40;;
77206;SDS011;66190;50.708;7.906;2023-04-24T08:07:23;9.97;;;3.50;;
77206;SDS011;66190;50.708;7.906;2023-04-24T08:09:49;7.55;;;3.25;;
77206;SDS011;66190;50.708;7.906;2023-04-24T08:12:14;6.90;;;2.83;;
77206;SDS011;66190;50.708;7.906;2023-04-24T08:14:40;7.87;;;2.23;;
77206;SDS011;66190;50.708;7.906;2023-04-24T08:17:05;9.63;;;4.70;;
77206;SDS011;66190;50.708;7.906;2023-04-24T08:19:31;10.07;;;4.73;;
77206;SDS011;66190;50.708;7.906;2023-04-24T08:21:56;10.37;;;4.30;;
77206;SDS011;66190;50.708;7.906;2023-04-24T08:24:22;10.20;;;4.43;;
77206;SDS011;66190;50.708;7.906;2023-04-24T08:26:47;9.07;;;4.25;;
77206;SDS011;66190;50.708;7.906;2023-04-24T08:29:17;10.05;;;4.10;;
77206;SDS011;66190;50.708;7.906;2023-04-24T08:31:42;9.27;;;4.00;;
77206;SDS011;66190;50.708;7.906;2023-04-24T08:34:09;10.03;;;4.83;;
77206;SDS011;66190;50.708;7.906;2023-04-24T08:36:34;15.07;;;4.07;;
77206;SDS011;66190;50.708;7.906;2023-04-24T08:39:00;9.03;;;4.33;;
77206;SDS011;66190;50.708;7.906;2023-04-24T08:41:26;9.18;;;4.10;;
77206;SDS011;66190;50.708;7.906;2023-04-24T08:43:52;9.55;;;3.55;;
77206;SDS011;66190;50.708;7.906;2023-04-24T08:46:18;9.95;;;4.32;;
77206;SDS011;66190;50.708;7.906;2023-04-24T08:48:44;12.43;;;4.60;;
77206;SDS011;66190;50.708;7.906;2023-04-24T08:51:10;8.60;;;3.83;;
77206;SDS011;66190;50.708;7.906;2023-04-24T08:53:36;7.40;;;3.20;;
77206;SDS011;66190;50.708;7.906;2023-04-24T08:56:01;10.13;;;4.03;;
77206;SDS011;66190;50.708;7.906;2023-04-24T08:58:27;8.45;;;3.75;;
77206;SDS011;66190;50.708;7.906;2023-04-24T09:00:56;8.17;;;3.20;;
77206;SDS011;66190;50.708;7.906;2023-04-24T09:03:22;9.68;;;3.72;;
77206;SDS011;66190;50.708;7.906;2023-04-24T09:05:48;7.35;;;3.20;;
77206;SDS011;66190;50.708;7.906;2023-04-24T09:08:16;6.78;;;2.75;;
77206;SDS011;66190;50.708;7.906;2023-04-24T09:10:43;7.68;;;3.33;;
77206;SDS011;66190;50.708;7.906;2023-04-24T09:13:09;8.55;;;2.72;;
77206;SDS011;66190;50.708;7.906;2023-04-24T09:15:35;7.47;;;2.53;;
77206;SDS011;66190;50.708;7.906;2023-04-24T09:18:01;9.43;;;3.20;;
77206;SDS011;66190;50.708;7.906;2023-04-24T09:20:27;7.45;;;2.72;;
77206;SDS011;66190;50.708;7.906;2023-04-24T09:22:58;7.72;;;2.58;;
77206;SDS011;66190;50.708;7.906;2023-04-24T09:25:33;5.23;;;1.77;;
77206;SDS011;66190;50.708;7.906;2023-04-24T09:28:03;5.35;;;1.20;;
77206;SDS011;66190;50.708;7.906;2023-04-24T09:30:29;4.13;;;1.00;;
77206;SDS011;66190;50.708;7.906;2023-04-24T09:33:12;4.28;;;1.00;;
77206;SDS011;66190;50.708;7.906;2023-04-24T09:35:50;3.03;;;0.70;;
77206;SDS011;66190;50.708;7.906;2023-04-24T09:38:16;1.50;;;0.30;;
77206;SDS011;66190;50.708;7.906;2023-04-24T09:40:42;2.78;;;0.50;;
77206;SDS011;66190;50.708;7.906;2023-04-24T09:43:10;2.00;;;0.50;;
77206;SDS011;66190;50.708;7.906;2023-04-24T09:45:36;2.22;;;0.52;;
77206;SDS011;66190;50.708;7.906;2023-04-24T09:48:03;2.47;;;0.60;;
77206;SDS011;66190;50.708;7.906;2023-04-24T09:50:31;2.50;;;0.50;;
77206;SDS011;66190;50.708;7.906;2023-04-24T09:55:30;2.20;;;0.40;;
77206;SDS011;66190;50.708;7.906;2023-04-24T09:57:57;2.33;;;0.40;;
77206;SDS011;66190;50.708;7.906;2023-04-24T10:00:26;2.63;;;0.50;;
77206;SDS011;66190;50.708;7.906;2023-04-24T10:08:13;2.65;;;0.50;;
77206;SDS011;66190;50.708;7.906;2023-04-24T10:10:40;3.17;;;0.97;;
77206;SDS011;66190;50.708;7.906;2023-04-24T10:13:10;3.38;;;0.60;;
77206;SDS011;66190;50.708;7.906;2023-04-24T10:15:37;3.22;;;0.70;;
77206;SDS011;66190;50.708;7.906;2023-04-24T10:18:07;3.80;;;0.80;;
77206;SDS011;66190;50.708;7.906;2023-04-24T10:20:34;3.15;;;0.77;;
77206;SDS011;66190;50.708;7.906;2023-04-24T10:23:01;6.38;;;1.38;;
77206;SDS011;66190;50.708;7.906;2023-04-24T10:25:27;3.38;;;0.70;;
77206;SDS011;66190;50.708;7.906;2023-04-24T10:27:57;3.22;;;0.70;;
77206;SDS011;66190;50.708;7.906;2023-04-24T10:30:24;3.97;;;0.77;;
77206;SDS011;66190;50.708;7.906;2023-04-24T10:32:52;3.17;;;0.75;;
77206;SDS011;66190;50.708;7.906;2023-04-24T10:35:17;3.37;;;0.77;;
77206;SDS011;66190;50.708;7.906;2023-04-24T10:38:30;5.55;;;1.02;;
77206;SDS011;66190;50.708;7.906;2023-04-24T10:40:36;3.42;;;0.90;;
77206;SDS011;66190;50.708;7.906;2023-04-24T10:43:02;4.65;;;0.77;;
77206;SDS011;66190;50.708;7.906;2023-04-24T10:45:33;4.90;;;1.20;;
77206;SDS011;66190;50.708;7.906;2023-04-24T10:50:29;3.63;;;0.80;;
77206;SDS011;66190;50.708;7.906;2023-04-24T10:53:11;4.57;;;1.00;;
77206;SDS011;66190;50.708;7.906;2023-04-24T10:55:44;4.70;;;1.00;;
77206;SDS011;66190;50.708;7.906;2023-04-24T10:58:18;3.70;;;0.80;;
77206;SDS011;66190;50.708;7.906;2023-04-24T11:00:57;3.95;;;0.88;;
77206;SDS011;66190;50.708;7.906;2023-04-24T11:03:24;3.80;;;0.90;;
77206;SDS011;66190;50.708;7.906;2023-04-24T11:05:59;3.92;;;1.13;;
77206;SDS011;66190;50.708;7.906;2023-04-24T11:08:25;4.33;;;1.00;;
77206;SDS011;66190;50.708;7.906;2023-04-24T11:11:00;4.60;;;1.00;;
77206;SDS011;66190;50.708;7.906;2023-04-24T11:19:24;4.20;;;0.90;;
77206;SDS011;66190;50.708;7.906;2023-04-24T11:21:55;5.17;;;1.07;;
77206;SDS011;66190;50.708;7.906;2023-04-24T11:24:28;3.20;;;0.75;;
77206;SDS011;66190;50.708;7.906;2023-04-24T11:37:27;4.55;;;1.20;;
77206;SDS011;66190;50.708;7.906;2023-04-24T11:39:55;4.55;;;1.33;;
77206;SDS011;66190;50.708;7.906;2023-04-24T11:42:22;5.22;;;1.23;;
77206;SDS011;66190;50.708;7.906;2023-04-24T11:44:49;4.17;;;1.20;;
77206;SDS011;66190;50.708;7.906;2023-04-24T11:47:14;5.72;;;2.05;;
77206;SDS011;66190;50.708;7.906;2023-04-24T11:49:40;4.30;;;1.30;;
77206;SDS011;66190;50.708;7.906;2023-04-24T11:52:05;5.90;;;1.98;;
77206;SDS011;66190;50.708;7.906;2023-04-24T11:54:31;7.87;;;2.10;;
77206;SDS011;66190;50.708;7.906;2023-04-24T11:56:57;6.60;;;2.38;;
77206;SDS011;66190;50.708;7.906;2023-04-24T11:59:22;6.67;;;2.20;;
77206;SDS011;66190;50.708;7.906;2023-04-24T12:01:48;7.30;;;2.53;;
77206;SDS011;66190;50.708;7.906;2023-04-24T12:04:15;9.18;;;3.60;;
77206;SDS011;66190;50.708;7.906;2023-04-24T12:07:03;6.65;;;2.33;;
77206;SDS011;66190;50.708;7.906;2023-04-24T12:09:29;7.03;;;2.65;;
77206;SDS011;66190;50.708;7.906;2023-04-24T12:12:05;6.38;;;2.42;;
77206;SDS011;66190;50.708;7.906;2023-04-24T12:14:31;10.60;;;2.83;;
77206;SDS011;66190;50.708;7.906;2023-04-24T12:16:57;9.23;;;3.80;;
77206;SDS011;66190;50.708;7.906;2023-04-24T12:19:22;5.90;;;1.90;;
77206;SDS011;66190;50.708;7.906;2023-04-24T12:22:01;8.18;;;3.00;;
77206;SDS011;66190;50.708;7.906;2023-04-24T12:24:28;6.72;;;2.45;;
77206;SDS011;66190;50.708;7.906;2023-04-24T12:26:53;7.07;;;2.47;;
77206;SDS011;66190;50.708;7.906;2023-04-24T12:29:20;9.73;;;3.50;;
77206;SDS011;66190;50.708;7.906;2023-04-24T12:31:46;9.48;;;2.50;;
77206;SDS011;66190;50.708;7.906;2023-04-24T12:34:21;10.20;;;3.60;;
77206;SDS011;66190;50.708;7.906;2023-04-24T12:36:48;8.00;;;3.20;;
77206;SDS011;66190;50.708;7.906;2023-04-24T12:39:22;10.38;;;3.92;;
77206;SDS011;66190;50.708;7.906;2023-04-24T12:41:55;10.47;;;4.03;;
77206;SDS011;66190;50.708;7.906;2023-04-24T12:44:31;12.60;;;4.60;;
77206;SDS011;66190;50.708;7.906;2023-04-24T12:46:59;11.73;;;4.53;;
77206;SDS011;66190;50.708;7.906;2023-04-24T12:49:27;10.27;;;4.60;;
77206;SDS011;66190;50.708;7.906;2023-04-24T12:51:55;8.95;;;3.88;;
77206;SDS011;66190;50.708;7.906;2023-04-24T12:54:20;9.87;;;3.50;;
77206;SDS011;66190;50.708;7.906;2023-04-24T12:56:46;9.10;;;3.25;;
77206;SDS011;66190;50.708;7.906;2023-04-24T12:59:12;8.47;;;3.20;;
77206;SDS011;66190;50.708;7.906;2023-04-24T13:01:37;8.90;;;3.00;;
77206;SDS011;66190;50.708;7.906;2023-04-24T13:04:02;11.00;;;4.27;;
77206;SDS011;66190;50.708;7.906;2023-04-24T13:06:28;10.13;;;3.83;;
77206;SDS011;66190;50.708;7.906;2023-04-24T13:08:53;9.07;;;3.23;;
77206;SDS011;66190;50.708;7.906;2023-04-24T13:11:20;10.18;;;3.58;;
77206;SDS011;66190;50.708;7.906;2023-04-24T13:13:46;11.00;;;4.05;;
77206;SDS011;66190;50.708;7.906;2023-04-24T13:16:12;17.42;;;7.50;;
77206;SDS011;66190;50.708;7.906;2023-04-24T13:18:38;11.52;;;4.88;;
77206;SDS011;66190;50.708;7.906;2023-04-24T13:21:03;13.37;;;5.33;;
77206;SDS011;66190;50.708;7.906;2023-04-24T13:23:28;12.83;;;5.63;;
77206;SDS011;66190;50.708;7.906;2023-04-24T13:25:54;10.07;;;4.47;;
77206;SDS011;66190;50.708;7.906;2023-04-24T13:28:22;11.43;;;3.67;;
77206;SDS011;66190;50.708;7.906;2023-04-24T13:30:48;12.55;;;4.60;;
77206;SDS011;66190;50.708;7.906;2023-04-24T13:33:13;13.33;;;4.90;;
77206;SDS011;66190;50.708;7.906;2023-04-24T13:35:39;15.13;;;5.83;;
77206;SDS011;66190;50.708;7.906;2023-04-24T13:38:04;12.37;;;4.97;;
77206;SDS011;66190;50.708;7.906;2023-04-24T13:40:31;11.20;;;4.00;;
77206;SDS011;66190;50.708;7.906;2023-04-24T13:42:57;14.23;;;5.90;;
77206;SDS011;66190;50.708;7.906;2023-04-24T13:45:22;14.50;;;6.18;;
77206;SDS011;66190;50.708;7.906;2023-04-24T13:47:47;11.20;;;4.53;;
77206;SDS011;66190;50.708;7.906;2023-04-24T13:50:13;11.10;;;4.23;;
77206;SDS011;66190;50.708;7.906;2023-04-24T13:52:38;14.30;;;5.70;;
77206;SDS011;66190;50.708;7.906;2023-04-24T13:55:04;14.57;;;5.43;;
77206;SDS011;66190;50.708;7.906;2023-04-24T13:57:29;16.15;;;6.53;;
77206;SDS011;66190;50.708;7.906;2023-04-24T13:59:56;13.80;;;5.68;;
77206;SDS011;66190;50.708;7.906;2023-04-24T14:02:26;12.25;;;5.10;;
77206;SDS011;66190;50.708;7.906;2023-04-24T14:04:51;12.27;;;5.68;;
77206;SDS011;66190;50.708;7.906;2023-04-24T14:07:17;13.43;;;6.30;;
77206;SDS011;66190;50.708;7.906;2023-04-24T14:09:42;12.10;;;5.23;;
77206;SDS011;66190;50.708;7.906;2023-04-24T14:12:07;12.30;;;5.23;;
77206;SDS011;66190;50.708;7.906;2023-04-24T14:14:33;14.03;;;5.57;;
77206;SDS011;66190;50.708;7.906;2023-04-24T14:16:58;15.45;;;5.82;;
77206;SDS011;66190;50.708;7.906;2023-04-24T14:19:24;12.30;;;5.05;;
77206;SDS011;66190;50.708;7.906;2023-04-24T14:21:49;14.43;;;5.97;;
77206;SDS011;66190;50.708;7.906;2023-04-24T14:24:15;9.97;;;4.00;;
77206;SDS011;66190;50.708;7.906;2023-04-24T14:26:40;13.68;;;5.32;;
77206;SDS011;66190;50.708;7.906;2023-04-24T14:29:06;11.93;;;5.57;;
77206;SDS011;66190;50.708;7.906;2023-04-24T14:31:31;12.23;;;5.77;;
77206;SDS011;66190;50.708;7.906;2023-04-24T14:33:56;15.40;;;6.73;;
77206;SDS011;66190;50.708;7.906;2023-04-24T14:36:22;14.77;;;6.57;;
77206;SDS011;66190;50.708;7.906;2023-04-24T14:38:48;11.63;;;4.83;;
77206;SDS011;66190;50.708;7.906;2023-04-24T14:41:14;14.45;;;5.43;;
77206;SDS011;66190;50.708;7.906;2023-04-24T14:43:39;9.63;;;4.80;;
77206;SDS011;66190;50.708;7.906;2023-04-24T14:46:05;12.98;;;5.90;;
77206;SDS011;66190;50.708;7.906;2023-04-24T14:48:30;14.60;;;6.20;;
77206;SDS011;66190;50.708;7.906;2023-04-24T14:50:56;13.77;;;6.10;;
77206;SDS011;66190;50.708;7.906;2023-04-24T14:53:21;12.27;;;5.67;;
77206;SDS011;66190;50.708;7.906;2023-04-24T14:55:47;12.85;;;5.07;;
77206;SDS011;66190;50.708;7.906;2023-04-24T14:58:12;7.87;;;2.97;;
77206;SDS011;66190;50.708;7.906;2023-04-24T15:00:38;11.33;;;5.00;;
77206;SDS011;66190;50.708;7.906;2023-04-24T15:03:03;12.03;;;4.70;;
77206;SDS011;66190;50.708;7.906;2023-04-24T15:05:28;11.70;;;4.90;;
77206;SDS011;66190;50.708;7.906;2023-04-24T15:07:55;17.48;;;5.53;;